Time;durP1;ratioP1;P1;durP2;ratioP2;P2;SDS_P1;SDS_P2;PMS_P1;PMS_P2;Temp;Humidity;BMP_temperature;BMP_pressure;BME280_temperature;BME280_humidity;BME280_pressure;Samples;Min_cycle;Max_cycle;Signal;HPM_P1;HPM_P2
2022/12/01 00:02:02;;;;;;;12.00;6.63;;;7.90;99.90;;;;;;5052627;28;20754;-76
2022/12/01 00:04:28;;;;;;;17.17;7.07;;;7.90;99.90;;;;;;5053664;28;20170;-77
2022/12/01 00:06:53;;;;;;;9.80;7.27;;;7.90;99.90;;;;;;5036559;28;20178;-77
2022/12/01 00:12:03;;;;;;;16.13;8.80;;;7.90;99.90;;;;;;5054939;28;20193;-77
2022/12/01 00:14:29;;;;;;;10.40;6.73;;;7.90;99.90;;;;;;5036041;28;20417;-77
2022/12/01 00:16:54;;;;;;;13.83;8.30;;;7.90;99.90;;;;;;5053330;28;20175;-75
2022/12/01 00:19:24;;;;;;;15.70;8.30;;;7.90;99.90;;;;;;5052664;28;20197;-75
2022/12/01 00:21:49;;;;;;;15.10;7.60;;;7.90;99.90;;;;;;5054336;28;20229;-77
2022/12/01 00:24:15;;;;;;;13.77;7.73;;;7.90;99.90;;;;;;5054149;28;20890;-77
2022/12/01 00:26:40;;;;;;;15.17;8.00;;;8.00;99.90;;;;;;5039083;28;20699;-77
2022/12/01 00:29:06;;;;;;;18.70;8.57;;;7.90;99.90;;;;;;5054934;28;20257;-76
2022/12/01 00:31:32;;;;;;;12.90;8.50;;;7.90;99.90;;;;;;5034317;28;20649;-75
2022/12/01 00:33:57;;;;;;;10.30;7.50;;;7.90;99.90;;;;;;5035381;28;20433;-76
2022/12/01 00:36:23;;;;;;;13.60;8.40;;;8.00;99.90;;;;;;5053539;28;20571;-77
2022/12/01 00:38:55;;;;;;;15.53;8.23;;;8.00;99.90;;;;;;5035861;28;20277;-77
2022/12/01 00:41:23;;;;;;;13.40;7.60;;;8.00;99.90;;;;;;5053995;28;20177;-77
2022/12/01 00:43:49;;;;;;;14.20;8.63;;;7.90;99.90;;;;;;5034128;28;20506;-76
2022/12/01 00:46:15;;;;;;;17.03;8.20;;;7.90;99.90;;;;;;5051855;28;20821;-77
2022/12/01 00:48:40;;;;;;;13.80;8.03;;;7.90;99.90;;;;;;5052253;28;20394;-77
2022/12/01 00:51:06;;;;;;;13.47;9.37;;;7.90;99.90;;;;;;5053767;28;20167;-76
2022/12/01 00:53:32;;;;;;;13.87;7.67;;;7.80;99.90;;;;;;5053716;28;20191;-77
2022/12/01 00:55:57;;;;;;;15.93;8.13;;;7.80;99.90;;;;;;5053805;28;20166;-77
2022/12/01 00:58:23;;;;;;;15.07;8.83;;;7.80;99.90;;;;;;5053802;28;20254;-77
2022/12/01 01:00:55;;;;;;;12.87;8.50;;;7.80;99.90;;;;;;5036391;28;20170;-77
2022/12/01 01:03:21;;;;;;;16.20;8.73;;;7.90;99.90;;;;;;5053112;28;20444;-76
2022/12/01 01:05:46;;;;;;;12.07;8.57;;;7.90;99.90;;;;;;5052905;28;20491;-77
2022/12/01 01:08:13;;;;;;;19.27;8.60;;;7.80;99.90;;;;;;5063060;28;20166;-76
2022/12/01 01:10:41;;;;;;;18.53;10.20;;;7.80;99.90;;;;;;5052158;28;20182;-77
2022/12/01 01:13:07;;;;;;;15.60;8.40;;;7.90;99.90;;;;;;5036640;28;20475;-78
2022/12/01 01:15:33;;;;;;;17.80;8.53;;;7.80;99.90;;;;;;5053913;28;20488;-77
2022/12/01 01:17:59;;;;;;;18.13;8.73;;;7.80;99.90;;;;;;5053459;28;20398;-77
2022/12/01 01:20:24;;;;;;;16.00;8.27;;;7.80;99.90;;;;;;5054663;28;20475;-77
2022/12/01 01:22:50;;;;;;;19.10;10.00;;;7.80;99.90;;;;;;5053378;28;20225;-77
2022/12/01 01:25:15;;;;;;;19.80;9.73;;;7.90;99.90;;;;;;5052884;28;20636;-77
2022/12/01 01:27:41;;;;;;;18.33;9.50;;;7.90;99.90;;;;;;5039698;28;20175;-75
2022/12/01 01:30:07;;;;;;;17.83;9.07;;;7.80;99.90;;;;;;5031723;28;20258;-76
2022/12/01 01:32:32;;;;;;;20.93;10.10;;;7.80;99.90;;;;;;5031735;28;20715;-77
2022/12/01 01:34:58;;;;;;;18.03;8.87;;;7.90;99.90;;;;;;5015238;28;20414;-75
2022/12/01 01:37:23;;;;;;;17.20;11.10;;;7.80;99.90;;;;;;5031663;28;20246;-75
2022/12/01 01:39:49;;;;;;;23.23;10.63;;;7.80;99.90;;;;;;5031904;28;20174;-76
2022/12/01 01:42:18;;;;;;;13.50;8.70;;;7.80;99.90;;;;;;5031538;28;20233;-77
2022/12/01 01:44:57;;;;;;;26.93;11.33;;;7.90;99.90;;;;;;5033211;28;20163;-78
2022/12/01 01:47:39;;;;;;;19.13;9.00;;;7.80;99.90;;;;;;5035795;28;20820;-77
2022/12/01 01:50:10;;;;;;;22.30;11.37;;;7.90;99.90;;;;;;5033375;28;20425;-75
2022/12/01 01:52:41;;;;;;;18.37;10.03;;;7.90;99.90;;;;;;5031698;28;20430;-75
2022/12/01 01:55:07;;;;;;;20.33;9.70;;;7.80;99.90;;;;;;5032192;28;20409;-76
2022/12/01 01:57:33;;;;;;;18.00;10.27;;;7.90;99.90;;;;;;5035433;28;20781;-76
2022/12/01 02:00:14;;;;;;;24.57;10.87;;;7.80;99.90;;;;;;5035281;28;20854;-76
2022/12/01 02:02:44;;;;;;;20.23;10.70;;;7.80;99.90;;;;;;5035179;28;20453;-76
2022/12/01 02:05:22;;;;;;;29.10;12.60;;;7.80;99.90;;;;;;5017289;28;20418;-75
2022/12/01 02:07:50;;;;;;;19.77;11.93;;;7.90;99.90;;;;;;5017923;28;20410;-76
2022/12/01 02:10:21;;;;;;;19.97;12.77;;;7.80;99.90;;;;;;5018971;28;20418;-77
2022/12/01 02:13:32;;;;;;;20.83;11.10;;;7.80;99.90;;;;;;5019232;28;20803;-77
2022/12/01 02:16:08;;;;;;;37.53;13.40;;;7.80;99.90;;;;;;5053353;28;20417;-78
2022/12/01 02:18:52;;;;;;;28.30;12.00;;;7.80;99.90;;;;;;5078136;28;20388;-77
2022/12/01 02:21:44;;;;;;;21.60;13.17;;;7.80;99.90;;;;;;5074880;28;20927;-75
2022/12/01 02:24:34;;;;;;;20.17;11.87;;;7.70;99.90;;;;;;5074579;28;20456;-75
2022/12/01 02:27:08;;;;;;;21.47;11.33;;;7.70;99.90;;;;;;5067905;28;20481;-76
2022/12/01 02:29:52;;;;;;;20.70;10.90;;;7.70;99.90;;;;;;5055426;28;20424;-76
2022/12/01 02:32:23;;;;;;;23.97;11.70;;;7.70;99.90;;;;;;5056525;28;20472;-77
2022/12/01 02:35:14;;;;;;;24.80;13.13;;;7.70;99.90;;;;;;5056929;28;20480;-75
2022/12/01 02:38:03;;;;;;;22.43;11.73;;;7.70;99.90;;;;;;5054604;28;20489;-77
2022/12/01 02:41:05;;;;;;;17.77;11.00;;;7.80;99.90;;;;;;5054555;28;20404;-77
2022/12/01 02:43:37;;;;;;;30.80;12.87;;;7.70;99.90;;;;;;5014646;28;20472;-76
2022/12/01 02:46:12;;;;;;;28.03;10.97;;;7.70;99.90;;;;;;5036380;28;20401;-76
2022/12/01 02:48:41;;;;;;;25.20;12.93;;;7.70;99.90;;;;;;5054439;28;20405;-76
2022/12/01 02:51:15;;;;;;;23.40;12.23;;;7.70;99.90;;;;;;5054319;28;20406;-76
2022/12/01 02:53:40;;;;;;;30.50;13.03;;;7.70;99.90;;;;;;5054308;28;20425;-77
2022/12/01 02:56:10;;;;;;;20.23;11.90;;;7.70;99.90;;;;;;5054358;28;20488;-77
2022/12/01 02:58:35;;;;;;;28.23;11.33;;;7.70;99.90;;;;;;5055892;28;20159;-76
2022/12/01 03:01:25;;;;;;;27.77;12.97;;;7.70;99.90;;;;;;5054869;28;20556;-76
2022/12/01 03:04:09;;;;;;;25.13;11.83;;;7.70;99.90;;;;;;5056370;28;20194;-77
2022/12/01 03:06:58;;;;;;;19.40;10.90;;;7.70;99.90;;;;;;5055146;28;20926;-77
2022/12/01 03:09:45;;;;;;;25.13;11.80;;;7.70;99.90;;;;;;5055233;28;20417;-77
2022/12/01 03:12:24;;;;;;;23.57;11.03;;;7.70;99.90;;;;;;5037470;28;20836;-77
2022/12/01 03:15:04;;;;;;;21.40;11.30;;;7.70;99.90;;;;;;5054394;28;20974;-75
2022/12/01 03:17:48;;;;;;;24.20;12.13;;;7.60;99.90;;;;;;5053888;28;20410;-75
2022/12/01 03:20:22;;;;;;;22.53;11.27;;;7.70;99.90;;;;;;5054874;28;20409;-75
2022/12/01 03:22:55;;;;;;;25.43;12.13;;;7.70;99.90;;;;;;5064756;28;20504;-77
2022/12/01 03:25:23;;;;;;;21.30;11.10;;;7.60;99.90;;;;;;5055618;28;20444;-77
2022/12/01 03:27:55;;;;;;;23.47;11.40;;;7.70;99.90;;;;;;5024568;28;20411;-75
2022/12/01 03:30:23;;;;;;;19.07;11.57;;;7.70;99.90;;;;;;5033589;28;20434;-76
2022/12/01 03:32:56;;;;;;;21.43;10.70;;;7.60;99.90;;;;;;5033546;28;20808;-75
2022/12/01 03:35:23;;;;;;;23.33;11.40;;;7.60;99.90;;;;;;5033349;28;20467;-75
2022/12/01 03:38:04;;;;;;;25.87;12.03;;;7.60;99.90;;;;;;5034068;28;20433;-77
2022/12/01 03:40:32;;;;;;;22.30;11.70;;;7.60;99.90;;;;;;5035516;28;20417;-77
2022/12/01 03:43:00;;;;;;;23.53;10.90;;;7.70;99.90;;;;;;5033555;28;20454;-77
2022/12/01 03:45:34;;;;;;;25.07;12.93;;;7.60;99.90;;;;;;5033141;28;20498;-76
2022/12/01 03:48:00;;;;;;;25.27;10.97;;;7.60;99.90;;;;;;5017022;28;20409;-77
2022/12/01 03:50:38;;;;;;;14.90;9.57;;;7.70;99.90;;;;;;5035535;28;20409;-77
2022/12/01 03:53:18;;;;;;;23.83;12.20;;;7.70;99.90;;;;;;5037307;28;20555;-77
2022/12/01 03:55:49;;;;;;;28.90;13.00;;;7.60;99.90;;;;;;5034916;28;20406;-76
2022/12/01 03:58:23;;;;;;;29.97;12.30;;;7.60;99.90;;;;;;5033262;28;21113;-75
2022/12/01 04:00:52;;;;;;;33.80;12.40;;;7.60;99.90;;;;;;5033198;28;20412;-76
2022/12/01 04:03:21;;;;;;;29.37;12.87;;;7.60;99.90;;;;;;5033136;28;20979;-75
2022/12/01 04:05:47;;;;;;;34.83;13.40;;;7.60;99.90;;;;;;5033007;28;20403;-77
2022/12/01 04:08:13;;;;;;;44.27;18.27;;;7.60;99.90;;;;;;5015373;28;20416;-77
2022/12/01 04:10:38;;;;;;;38.03;15.50;;;7.60;99.90;;;;;;5033369;28;20164;-77
2022/12/01 04:13:04;;;;;;;31.60;13.37;;;7.50;99.90;;;;;;5015908;28;20191;-77
2022/12/01 04:15:29;;;;;;;34.83;15.90;;;7.50;99.90;;;;;;5037237;28;20235;-77
2022/12/01 04:17:55;;;;;;;34.93;13.80;;;7.50;99.90;;;;;;5037481;28;20256;-77
2022/12/01 04:20:21;;;;;;;37.03;13.97;;;7.50;99.90;;;;;;5035279;28;20168;-77
2022/12/01 04:22:47;;;;;;;29.43;14.87;;;7.50;99.90;;;;;;5032872;28;20203;-76
2022/12/01 04:25:12;;;;;;;21.27;13.33;;;7.50;99.90;;;;;;5018375;28;20493;-77
2022/12/01 04:27:38;;;;;;;30.90;12.70;;;7.50;99.90;;;;;;5037194;28;20536;-77
2022/12/01 04:30:05;;;;;;;32.53;15.77;;;7.50;99.90;;;;;;5017963;28;20180;-77
2022/12/01 04:32:31;;;;;;;40.83;14.20;;;7.50;99.90;;;;;;5030633;28;20499;-77
2022/12/01 04:34:56;;;;;;;26.40;11.17;;;7.50;99.90;;;;;;5060127;28;20405;-76
2022/12/01 04:37:22;;;;;;;29.67;15.57;;;7.50;99.90;;;;;;5051789;28;20186;-75
2022/12/01 04:39:47;;;;;;;32.30;14.50;;;7.50;99.90;;;;;;5051608;28;20175;-75
2022/12/01 04:42:13;;;;;;;33.77;13.27;;;7.50;99.90;;;;;;5051328;28;20729;-75
2022/12/01 04:44:38;;;;;;;42.80;15.23;;;7.50;99.90;;;;;;5051018;28;20228;-76
2022/12/01 04:47:05;;;;;;;32.27;14.87;;;7.50;99.90;;;;;;5051547;28;20162;-75
2022/12/01 04:49:31;;;;;;;27.93;13.53;;;7.60;99.90;;;;;;5051401;28;20163;-76
2022/12/01 04:51:57;;;;;;;41.73;16.20;;;7.50;99.90;;;;;;5051137;28;20402;-75
2022/12/01 04:54:23;;;;;;;34.43;14.23;;;7.50;99.90;;;;;;5051012;28;20398;-75
2022/12/01 04:56:49;;;;;;;26.43;12.93;;;7.50;99.90;;;;;;5051339;28;20773;-76
2022/12/01 04:59:15;;;;;;;35.07;14.50;;;7.50;99.90;;;;;;5051454;28;20408;-76
2022/12/01 05:01:40;;;;;;;31.20;15.03;;;7.50;99.90;;;;;;5051388;28;20263;-76
2022/12/01 05:04:06;;;;;;;33.63;14.73;;;7.50;99.90;;;;;;5035061;28;20206;-78
2022/12/01 05:06:31;;;;;;;35.07;14.33;;;7.40;99.90;;;;;;5039663;28;20178;-78
2022/12/01 05:09:00;;;;;;;40.37;17.53;;;7.40;99.90;;;;;;5038552;28;20174;-78
2022/12/01 05:11:27;;;;;;;33.90;15.07;;;7.40;99.90;;;;;;5056070;28;20213;-78
2022/12/01 05:13:53;;;;;;;37.53;13.60;;;7.40;99.90;;;;;;5055985;28;20985;-78
2022/12/01 05:16:21;;;;;;;34.13;16.67;;;7.30;99.90;;;;;;5037040;28;20401;-76
2022/12/01 05:21:44;;;;;;;29.13;14.60;;;7.30;99.90;;;;;;5051363;28;20401;-76
2022/12/01 05:24:11;;;;;;;30.13;14.27;;;7.30;99.90;;;;;;5050723;28;21126;-76
2022/12/01 05:26:37;;;;;;;42.40;16.20;;;7.30;99.90;;;;;;5046941;28;20433;-76
2022/12/01 05:29:03;;;;;;;29.73;16.60;;;7.40;99.90;;;;;;5030993;28;20437;-76
2022/12/01 05:32:49;;;;;;;33.10;14.67;;;7.40;99.90;;;;;;5069307;28;20606;-74
2022/12/01 05:35:15;;;;;;;37.90;15.60;;;7.40;99.90;;;;;;5067808;28;20925;-74
2022/12/01 05:37:40;;;;;;;36.90;17.33;;;7.40;99.90;;;;;;5071624;28;20224;-75
2022/12/01 05:40:06;;;;;;;33.00;14.80;;;7.40;99.90;;;;;;5079105;28;20652;-74
2022/12/01 05:42:32;;;;;;;29.13;15.13;;;7.40;99.90;;;;;;5067695;28;20288;-75
2022/12/01 05:44:57;;;;;;;36.37;15.80;;;7.40;99.90;;;;;;5067587;28;20428;-74
2022/12/01 05:47:23;;;;;;;34.17;15.47;;;7.40;99.90;;;;;;5069182;28;20253;-75
2022/12/01 05:49:49;;;;;;;31.10;14.07;;;7.40;99.90;;;;;;5067860;28;20510;-75
2022/12/01 05:52:14;;;;;;;39.27;15.40;;;7.40;99.90;;;;;;5067603;28;20210;-74
2022/12/01 05:54:40;;;;;;;31.97;14.60;;;7.40;99.90;;;;;;5068325;28;20216;-75
2022/12/01 05:57:05;;;;;;;25.30;14.13;;;7.40;99.90;;;;;;5068963;28;20167;-75
2022/12/01 05:59:31;;;;;;;34.70;13.17;;;7.30;99.90;;;;;;5068828;28;20171;-75
2022/12/01 06:01:56;;;;;;;27.83;13.30;;;7.40;99.90;;;;;;5068507;28;20174;-75
2022/12/01 06:04:23;;;;;;;30.37;13.90;;;7.30;99.90;;;;;;5067222;28;20178;-75
2022/12/01 06:06:48;;;;;;;22.27;11.47;;;7.30;99.90;;;;;;5068716;28;20245;-74
2022/12/01 06:09:14;;;;;;;41.80;15.27;;;7.30;99.90;;;;;;5068636;28;20397;-75
2022/12/01 06:11:39;;;;;;;28.40;14.90;;;7.30;99.90;;;;;;5068518;28;20213;-75
2022/12/01 06:14:05;;;;;;;31.07;14.27;;;7.30;99.90;;;;;;5067234;28;20193;-75
2022/12/01 06:16:30;;;;;;;29.80;12.63;;;7.30;99.90;;;;;;5068289;28;20166;-74
2022/12/01 06:18:56;;;;;;;25.80;13.83;;;7.30;99.90;;;;;;5068567;28;20171;-74
2022/12/01 06:21:21;;;;;;;29.60;12.63;;;7.30;99.90;;;;;;5067181;28;20193;-73
2022/12/01 06:23:47;;;;;;;26.33;13.00;;;7.30;99.90;;;;;;5067202;28;20247;-73
2022/12/01 06:26:12;;;;;;;27.30;13.30;;;7.40;99.90;;;;;;5067601;28;20171;-74
2022/12/01 06:28:38;;;;;;;23.23;12.90;;;7.30;99.90;;;;;;5048425;28;20229;-75
2022/12/01 06:31:04;;;;;;;26.27;12.60;;;7.30;99.90;;;;;;5048276;28;20203;-74
2022/12/01 06:33:30;;;;;;;25.87;10.60;;;7.20;99.90;;;;;;5048209;28;20206;-74
2022/12/01 06:35:57;;;;;;;25.93;13.40;;;7.20;99.90;;;;;;5048096;28;20163;-74
2022/12/01 06:38:23;;;;;;;21.10;10.93;;;7.20;99.90;;;;;;5046960;28;20890;-74
2022/12/01 06:40:48;;;;;;;22.47;11.33;;;7.20;99.90;;;;;;5048444;28;20402;-75
2022/12/01 06:43:14;;;;;;;24.63;10.40;;;7.20;99.90;;;;;;5040086;28;20191;-74
2022/12/01 06:45:39;;;;;;;20.67;14.00;;;7.20;99.90;;;;;;5034584;28;20167;-74
2022/12/01 06:48:05;;;;;;;29.23;11.67;;;7.20;99.90;;;;;;5051460;28;20183;-75
2022/12/01 06:50:31;;;;;;;20.50;10.53;;;7.20;99.90;;;;;;5070695;28;20178;-74
2022/12/01 06:52:57;;;;;;;20.50;9.80;;;7.20;99.90;;;;;;5074432;28;20424;-74
2022/12/01 06:55:23;;;;;;;18.43;11.40;;;7.20;99.90;;;;;;5074343;28;20304;-74
2022/12/01 06:57:48;;;;;;;21.03;11.10;;;7.10;99.90;;;;;;5074494;28;20178;-74
2022/12/01 07:00:14;;;;;;;22.53;11.80;;;7.20;99.90;;;;;;5074519;28;20401;-74
2022/12/01 07:02:40;;;;;;;21.87;11.40;;;7.20;99.90;;;;;;5074431;28;20194;-74
2022/12/01 07:05:06;;;;;;;22.53;10.93;;;7.20;99.90;;;;;;5074146;28;20400;-74
2022/12/01 07:07:33;;;;;;;22.70;9.60;;;7.10;99.90;;;;;;5073031;28;20178;-74
2022/12/01 07:09:59;;;;;;;19.90;10.23;;;7.10;99.90;;;;;;5074332;28;20169;-75
2022/12/01 07:12:24;;;;;;;22.57;10.93;;;7.10;99.90;;;;;;5074125;28;20455;-74
2022/12/01 07:14:50;;;;;;;15.80;10.03;;;7.10;99.90;;;;;;5074145;28;20167;-74
2022/12/01 07:17:15;;;;;;;18.67;10.60;;;7.20;99.90;;;;;;5074173;28;20250;-74
2022/12/01 07:19:41;;;;;;;24.13;12.37;;;7.10;99.90;;;;;;5074104;28;20174;-75
2022/12/01 07:22:06;;;;;;;21.23;10.60;;;7.10;99.90;;;;;;5073948;28;20175;-75
2022/12/01 07:24:32;;;;;;;18.63;11.60;;;7.20;99.90;;;;;;5072448;28;20189;-75
2022/12/01 07:26:58;;;;;;;20.30;11.00;;;7.20;99.90;;;;;;5067376;28;20552;-73
2022/12/01 07:29:23;;;;;;;23.73;13.37;;;7.30;99.90;;;;;;5054019;28;20179;-74
2022/12/01 07:31:49;;;;;;;21.80;11.83;;;7.30;99.90;;;;;;5053748;28;20587;-75
2022/12/01 07:34:14;;;;;;;27.53;13.93;;;7.30;99.90;;;;;;5052350;28;20187;-75
2022/12/01 07:36:40;;;;;;;27.73;12.33;;;7.30;99.90;;;;;;5053639;28;20548;-74
2022/12/01 07:39:07;;;;;;;25.23;12.77;;;7.20;99.90;;;;;;5052519;28;20179;-75
2022/12/01 07:41:34;;;;;;;24.50;12.80;;;7.30;99.90;;;;;;5053777;28;20416;-75
2022/12/01 07:43:59;;;;;;;20.90;11.07;;;7.30;99.90;;;;;;5053616;28;20437;-75
2022/12/01 07:46:26;;;;;;;24.50;11.97;;;7.30;99.90;;;;;;5052255;28;21177;-75
2022/12/01 07:48:53;;;;;;;20.73;12.30;;;7.40;99.90;;;;;;5053573;28;20202;-74
2022/12/01 07:51:20;;;;;;;28.60;13.17;;;7.40;99.90;;;;;;5052049;28;20540;-75
2022/12/01 07:53:48;;;;;;;18.83;10.43;;;7.40;99.90;;;;;;5051680;28;20799;-75
2022/12/01 07:56:14;;;;;;;18.50;11.03;;;7.50;99.90;;;;;;5053504;28;20809;-75
2022/12/01 07:58:40;;;;;;;27.70;12.23;;;7.50;99.90;;;;;;5064390;28;20409;-75
2022/12/01 08:01:13;;;;;;;26.77;12.47;;;7.50;99.90;;;;;;5053283;28;20448;-74
2022/12/01 08:03:40;;;;;;;21.97;13.00;;;7.50;99.90;;;;;;5053198;28;20465;-75
2022/12/01 08:06:06;;;;;;;21.20;11.47;;;7.50;99.90;;;;;;5053030;28;20496;-74
2022/12/01 08:08:34;;;;;;;31.10;12.33;;;7.50;99.90;;;;;;5053184;28;20417;-74
2022/12/01 08:11:04;;;;;;;21.67;11.30;;;7.50;99.90;;;;;;5051849;28;20448;-74
2022/12/01 08:13:30;;;;;;;23.70;11.63;;;7.60;99.90;;;;;;5053065;28;20512;-74
2022/12/01 08:15:56;;;;;;;20.70;11.73;;;7.60;99.90;;;;;;5052648;28;20440;-74
2022/12/01 08:18:21;;;;;;;22.27;11.70;;;7.70;99.90;;;;;;5053045;28;20232;-75
2022/12/01 08:20:48;;;;;;;26.73;12.13;;;7.70;99.90;;;;;;5052860;28;20554;-75
2022/12/01 08:23:13;;;;;;;23.90;11.20;;;7.70;99.90;;;;;;5052849;28;20478;-75
2022/12/01 08:25:39;;;;;;;21.30;10.93;;;7.70;99.90;;;;;;5051575;28;20807;-75
2022/12/01 08:28:04;;;;;;;25.10;12.07;;;7.70;99.90;;;;;;5052874;28;20167;-75
2022/12/01 08:30:30;;;;;;;21.13;11.43;;;7.70;99.90;;;;;;5051364;28;20183;-75
2022/12/01 08:32:56;;;;;;;23.33;12.77;;;7.70;99.90;;;;;;5047471;28;20560;-75
2022/12/01 08:35:22;;;;;;;19.07;11.37;;;7.70;99.90;;;;;;5052680;28;20182;-76
2022/12/01 08:37:50;;;;;;;26.50;12.93;;;7.60;99.90;;;;;;5052551;28;20398;-75
2022/12/01 08:40:16;;;;;;;22.40;11.70;;;7.60;99.90;;;;;;5051413;28;20421;-76
2022/12/01 08:42:42;;;;;;;28.27;11.87;;;7.60;99.90;;;;;;5052178;28;20953;-75
2022/12/01 08:45:08;;;;;;;17.83;9.70;;;7.60;99.90;;;;;;5050954;28;20225;-75
2022/12/01 08:47:33;;;;;;;20.50;11.70;;;7.50;99.90;;;;;;5051114;28;20186;-75
2022/12/01 08:49:59;;;;;;;27.93;13.17;;;7.60;99.90;;;;;;5051149;28;20409;-76
2022/12/01 08:52:24;;;;;;;19.70;11.37;;;7.60;99.90;;;;;;5044848;28;20687;-75
2022/12/01 08:54:50;;;;;;;22.20;11.90;;;7.60;99.90;;;;;;5041088;28;20164;-75
2022/12/01 08:57:16;;;;;;;22.37;12.03;;;7.50;99.90;;;;;;5042152;28;20163;-76
2022/12/01 08:59:43;;;;;;;28.07;11.50;;;7.50;99.90;;;;;;5042809;28;20199;-75
2022/12/01 09:02:13;;;;;;;25.47;11.20;;;7.60;99.90;;;;;;5040849;28;20590;-75
2022/12/01 09:04:40;;;;;;;19.27;11.20;;;7.60;99.90;;;;;;5041399;28;20409;-75
2022/12/01 09:07:09;;;;;;;20.70;9.70;;;7.70;99.90;;;;;;5042702;28;20410;-75
2022/12/01 09:09:35;;;;;;;23.40;11.00;;;7.60;99.90;;;;;;5040367;28;20415;-75
2022/12/01 09:12:00;;;;;;;25.30;11.60;;;7.70;99.90;;;;;;5041067;28;20506;-75
2022/12/01 09:14:27;;;;;;;20.67;10.00;;;7.70;99.90;;;;;;5042370;28;20629;-76
2022/12/01 09:16:52;;;;;;;14.20;8.93;;;7.70;99.90;;;;;;5041205;28;20175;-76
2022/12/01 09:19:19;;;;;;;30.50;12.10;;;7.70;99.90;;;;;;5041817;28;20411;-75
2022/12/01 09:21:44;;;;;;;19.30;9.20;;;7.80;99.90;;;;;;5041321;28;20919;-75
2022/12/01 09:24:13;;;;;;;20.83;10.60;;;7.70;99.90;;;;;;5040773;28;20426;-76
2022/12/01 09:26:39;;;;;;;17.43;10.30;;;7.70;99.90;;;;;;5041303;28;20512;-76
2022/12/01 09:29:07;;;;;;;22.83;10.73;;;7.70;99.90;;;;;;5041269;28;20417;-76
2022/12/01 09:31:34;;;;;;;25.67;12.30;;;7.80;99.90;;;;;;5040915;28;20458;-76
2022/12/01 09:34:03;;;;;;;23.30;11.40;;;7.70;99.90;;;;;;5041096;28;20524;-76
2022/12/01 09:36:30;;;;;;;26.33;12.07;;;7.80;99.90;;;;;;5042579;28;20915;-76
2022/12/01 09:38:56;;;;;;;17.77;10.57;;;7.80;99.90;;;;;;5041524;28;20818;-76
2022/12/01 09:41:27;;;;;;;27.47;11.03;;;7.80;99.90;;;;;;5040792;28;20470;-75
2022/12/01 09:43:55;;;;;;;22.20;12.17;;;7.80;99.90;;;;;;5040714;28;20480;-75
2022/12/01 09:46:26;;;;;;;22.10;10.07;;;7.80;99.90;;;;;;5040799;28;20413;-76
2022/12/01 09:48:56;;;;;;;15.07;9.27;;;7.80;99.90;;;;;;5040675;28;20406;-75
2022/12/01 09:51:24;;;;;;;21.60;10.90;;;7.80;99.90;;;;;;5040742;28;20441;-76
2022/12/01 09:53:54;;;;;;;24.87;11.80;;;7.80;99.90;;;;;;5040481;28;20422;-75
2022/12/01 09:56:23;;;;;;;20.03;9.63;;;7.80;99.90;;;;;;5040774;28;20432;-76
2022/12/01 09:58:55;;;;;;;17.37;8.77;;;7.80;99.90;;;;;;5042329;28;20803;-76
2022/12/01 10:01:28;;;;;;;17.67;10.30;;;7.80;99.90;;;;;;5042042;28;20472;-75
2022/12/01 10:03:57;;;;;;;18.73;10.70;;;7.80;99.90;;;;;;5041143;28;20768;-76
2022/12/01 10:06:40;;;;;;;15.63;8.70;;;7.80;99.90;;;;;;5039007;28;20405;-76
2022/12/01 10:09:28;;;;;;;18.50;11.27;;;7.90;99.90;;;;;;5042266;28;20455;-75
2022/12/01 10:12:00;;;;;;;26.00;11.47;;;8.00;99.90;;;;;;5040253;28;20452;-76
2022/12/01 10:14:28;;;;;;;21.87;11.77;;;8.10;99.90;;;;;;5041987;28;20430;-75
2022/12/01 10:17:18;;;;;;;19.47;9.70;;;8.10;99.90;;;;;;5040805;28;21081;-76
2022/12/01 10:20:15;;;;;;;24.67;12.30;;;8.20;99.90;;;;;;5044737;28;20452;-76
2022/12/01 10:23:26;;;;;;;21.10;11.50;;;8.30;99.90;;;;;;5041779;28;20429;-75
2022/12/01 10:26:08;;;;;;;22.27;12.10;;;8.40;99.90;;;;;;5043845;28;20444;-76
2022/12/01 10:28:47;;;;;;;24.23;12.77;;;8.40;99.90;;;;;;5044599;28;20470;-76
2022/12/01 10:31:19;;;;;;;23.73;11.47;;;8.40;99.90;;;;;;5043839;28;20449;-76
2022/12/01 10:34:14;;;;;;;30.23;14.13;;;8.50;99.90;;;;;;5043472;28;20796;-76
2022/12/01 10:36:40;;;;;;;20.90;12.23;;;8.70;99.90;;;;;;5045230;28;20569;-76
2022/12/01 10:39:06;;;;;;;22.07;11.43;;;8.70;99.90;;;;;;5043772;28;20497;-75
2022/12/01 10:41:35;;;;;;;27.10;11.10;;;8.60;99.90;;;;;;5045438;28;20602;-75
2022/12/01 10:44:04;;;;;;;21.03;11.07;;;8.80;99.90;;;;;;5044768;28;20425;-76
2022/12/01 10:46:40;;;;;;;25.23;11.50;;;8.80;99.90;;;;;;5041806;28;20406;-75
2022/12/01 10:49:09;;;;;;;21.73;10.87;;;8.80;99.90;;;;;;5043390;28;20505;-76
2022/12/01 10:51:55;;;;;;;23.60;10.90;;;8.90;99.90;;;;;;5044743;28;20449;-76
2022/12/01 10:54:24;;;;;;;20.07;9.27;;;8.90;99.90;;;;;;5044525;28;20821;-76
2022/12/01 10:56:54;;;;;;;25.50;11.63;;;9.00;99.90;;;;;;5043338;28;20405;-76
2022/12/01 10:59:26;;;;;;;17.70;11.43;;;9.10;99.90;;;;;;5044089;28;20985;-76
2022/12/01 11:01:53;;;;;;;20.73;10.80;;;9.20;99.90;;;;;;5043273;28;20489;-76
2022/12/01 11:04:33;;;;;;;19.87;10.80;;;9.30;99.90;;;;;;5054527;28;20827;-76
2022/12/01 11:07:00;;;;;;;15.40;9.20;;;9.40;99.90;;;;;;5054696;28;20830;-74
2022/12/01 11:09:28;;;;;;;20.00;10.83;;;9.40;99.90;;;;;;5050074;28;21129;-76
2022/12/01 11:11:57;;;;;;;23.67;11.07;;;9.40;99.90;;;;;;5040523;28;20565;-76
2022/12/01 11:14:40;;;;;;;17.63;10.43;;;9.40;99.90;;;;;;5043205;28;20402;-76
2022/12/01 11:17:15;;;;;;;17.97;11.10;;;9.40;99.90;;;;;;5044724;28;20409;-76
2022/12/01 11:19:40;;;;;;;19.10;9.60;;;9.40;99.90;;;;;;5043893;28;20818;-76
2022/12/01 11:22:28;;;;;;;21.13;9.90;;;9.30;99.90;;;;;;5043089;28;20409;-76
2022/12/01 11:24:56;;;;;;;15.40;8.90;;;9.30;99.90;;;;;;5042702;28;20174;-76
2022/12/01 11:27:25;;;;;;;22.53;10.37;;;9.30;99.90;;;;;;5043498;28;20929;-76
2022/12/01 11:29:54;;;;;;;18.43;8.73;;;9.30;99.90;;;;;;5044456;28;20846;-76
2022/12/01 11:32:27;;;;;;;15.23;8.80;;;9.20;99.90;;;;;;5042156;28;21002;-75
2022/12/01 11:34:59;;;;;;;15.67;8.47;;;9.00;99.90;;;;;;5042293;28;20426;-76
2022/12/01 11:37:34;;;;;;;19.20;8.40;;;9.00;99.90;;;;;;5042877;28;20417;-76
2022/12/01 11:40:08;;;;;;;19.60;9.90;;;8.90;99.90;;;;;;5032602;28;20774;-76
2022/12/01 11:42:35;;;;;;;17.77;7.87;;;8.80;99.90;;;;;;5032400;28;20441;-76
2022/12/01 11:45:19;;;;;;;16.37;8.07;;;8.80;99.90;;;;;;5032175;28;20410;-76
2022/12/01 11:48:16;;;;;;;12.20;7.47;;;8.70;99.90;;;;;;5033607;28;20434;-77
2022/12/01 11:50:43;;;;;;;17.43;9.07;;;8.50;99.90;;;;;;5033470;28;20408;-77
2022/12/01 11:53:30;;;;;;;15.77;8.37;;;8.40;99.90;;;;;;5033433;28;20423;-76
2022/12/01 11:56:23;;;;;;;15.13;8.57;;;8.30;99.90;;;;;;5035684;28;20402;-77
2022/12/01 11:59:00;;;;;;;11.80;7.93;;;8.30;99.90;;;;;;5038167;28;20444;-77
2022/12/01 12:01:39;;;;;;;9.80;6.70;;;8.20;99.90;;;;;;5033398;28;20412;-77
2022/12/01 12:04:13;;;;;;;14.17;6.90;;;8.20;99.90;;;;;;5033532;28;20418;-77
2022/12/01 12:07:03;;;;;;;17.90;9.03;;;8.20;99.90;;;;;;5035862;28;20414;-77
2022/12/01 12:09:47;;;;;;;14.70;9.10;;;8.20;99.90;;;;;;5035737;28;20409;-76
2022/12/01 12:12:40;;;;;;;16.23;8.40;;;8.30;99.90;;;;;;5033080;28;20494;-76
2022/12/01 12:15:24;;;;;;;14.50;9.40;;;8.30;99.90;;;;;;5032965;28;20398;-76
2022/12/01 12:18:21;;;;;;;13.83;8.90;;;8.30;99.90;;;;;;5031743;28;20446;-76
2022/12/01 12:21:29;;;;;;;16.20;10.40;;;8.30;99.90;;;;;;5035571;28;20486;-77
2022/12/01 12:24:13;;;;;;;17.00;9.23;;;8.30;99.90;;;;;;5037713;28;20943;-78
2022/12/01 12:26:59;;;;;;;23.07;10.00;;;8.30;99.90;;;;;;5037752;28;20810;-78
2022/12/01 12:29:50;;;;;;;14.93;8.03;;;8.30;99.90;;;;;;5051245;28;20501;-78
2022/12/01 12:32:21;;;;;;;14.47;8.90;;;8.20;99.90;;;;;;5036789;28;20488;-78
2022/12/01 12:35:15;;;;;;;19.50;10.10;;;8.10;99.90;;;;;;5037769;28;20406;-78
2022/12/01 12:38:23;;;;;;;21.47;10.23;;;8.10;99.90;;;;;;5037198;28;20485;-77
2022/12/01 12:40:55;;;;;;;13.87;8.87;;;8.10;99.90;;;;;;5036650;28;20417;-77
2022/12/01 12:43:43;;;;;;;18.90;10.80;;;8.10;99.90;;;;;;5034871;28;20525;-76
2022/12/01 12:46:12;;;;;;;17.07;9.13;;;8.20;99.90;;;;;;5044951;28;20410;-77
2022/12/01 12:49:14;;;;;;;18.40;10.70;;;8.30;99.90;;;;;;5035718;28;20415;-77
2022/12/01 12:51:51;;;;;;;23.67;11.50;;;8.40;99.90;;;;;;5036233;28;20466;-77
2022/12/01 12:54:45;;;;;;;15.30;9.00;;;8.60;99.90;;;;;;5035327;28;20807;-78
2022/12/01 12:57:24;;;;;;;17.43;10.33;;;8.70;99.90;;;;;;5032388;28;20472;-78
2022/12/01 12:59:57;;;;;;;17.80;9.33;;;8.80;99.90;;;;;;5036245;28;20406;-78
2022/12/01 13:02:38;;;;;;;20.37;11.33;;;8.90;99.90;;;;;;5035522;28;20422;-77
2022/12/01 13:05:16;;;;;;;19.60;11.07;;;8.80;99.90;;;;;;5036137;28;20930;-78
2022/12/01 13:07:46;;;;;;;19.93;10.70;;;8.80;99.90;;;;;;5035905;28;20463;-78